CDT,Max TemperatureF,Mean TemperatureF,Min TemperatureF,Max Dew PointF,MeanDew PointF,Min DewpointF,Max Humidity, Mean Humidity, Min Humidity, Max Sea Level PressureIn, Mean Sea Level PressureIn, Min Sea Level PressureIn, Max VisibilityMiles, Mean VisibilityMiles, Min VisibilityMiles, Max Wind SpeedMPH, Mean Wind SpeedMPH, Max Gust SpeedMPH,PrecipitationIn, CloudCover, Events, WindDirDegrees
2011-10-1,81,62,43,49,43,37,100,61,21,30.22,30.16,30.11,10,10,10,9,1,13,0.00,0,,309
2011-10-2,78,60,41,49,43,39,96,61,26,30.30,30.21,30.14,10,10,8,8,1,13,0.00,0,,65
2011-10-3,81,61,41,51,43,38,100,62,23,30.29,30.21,30.15,10,10,10,8,1,12,0.00,0,,10
2011-10-4,84,62,40,47,42,35,100,59,18,30.27,30.19,30.12,10,10,10,10,2,16,0.00,0,,71
2011-10-5,84,64,43,51,46,41,100,62,23,30.21,30.13,30.04,10,10,10,9,2,10,0.00,0,,57
2011-10-6,86,71,56,54,50,46,77,53,29,30.11,30.05,29.98,10,10,10,18,6,25,0.00,0,,76
2011-10-7,86,73,60,59,53,50,84,57,29,30.15,30.08,30.03,10,10,10,16,7,22,0.00,0,,73
2011-10-8,87,74,61,59,56,51,90,60,29,30.14,30.06,29.98,10,10,10,16,8,24,0.00,0,,73
2011-10-9,85,74,63,60,56,51,84,59,34,30.09,30.02,29.94,10,10,10,20,8,30,0.00,2,,71
2011-10-10,81,72,62,64,62,56,93,72,51,30.04,29.98,29.92,10,10,10,10,1,12,0.03,4,Rain,61
2011-10-11,85,71,57,64,60,56,100,70,40,29.95,29.89,29.78,10,6,1,9,1,14,0.00,2,,55
2011-10-12,76,66,56,66,61,57,100,80,60,29.83,29.77,29.72,10,7,0,12,3,14,0.43,4,Fog-Rain-Thunderstorm,100
2011-10-13,80,64,48,57,50,40,100,63,25,29.90,29.82,29.76,10,8,1,15,3,23,0.00,0,,290
2011-10-14,84,63,42,54,46,38,100,60,20,29.99,29.93,29.88,10,9,2,7,1,12,0.00,0,,156
2011-10-15,85,66,47,53,47,42,96,60,23,30.12,30.03,29.97,10,10,10,15,3,22,0.00,0,,70
2011-10-16,87,67,47,58,53,46,100,65,29,30.08,29.99,29.90,10,10,4,14,3,17,0.00,0,,190
2011-10-17,87,68,48,63,54,48,100,66,32,29.94,29.84,29.67,10,6,1,18,4,28,0.53,1,Rain-Thunderstorm,192
2011-10-18,65,55,44,64,50,34,100,68,36,29.95,29.81,29.68,10,9,2,18,7,28,0.12,6,Rain-Thunderstorm,305
2011-10-19,60,47,33,36,30,18,92,57,21,30.04,29.98,29.95,10,10,10,17,3,25,0.00,0,,272
2011-10-20,69,48,27,40,31,26,100,61,22,30.13,30.08,30.02,10,10,6,13,2,18,0.00,0,,304
2011-10-21,74,55,35,48,40,34,100,64,28,30.23,30.15,30.10,10,10,10,9,2,14,0.00,0,,96
2011-10-22,80,64,48,60,53,45,93,73,52,30.12,30.04,29.92,10,10,10,21,4,29,0.44,4,Rain-Thunderstorm,73
2011-10-23,77,64,51,61,57,53,100,75,50,30.11,30.02,29.90,10,7,0,9,2,14,0.39,4,Fog-Rain-Thunderstorm,338
2011-10-24,76,62,48,60,53,48,100,77,54,30.23,30.16,30.11,10,3,0,8,1,13,0.00,4,Fog,39
2011-10-25,83,66,48,62,54,48,100,73,46,30.14,30.07,29.93,10,6,0,17,4,24,0.00,0,Fog,115
2011-10-26,82,69,56,65,62,56,100,77,54,29.94,29.87,29.80,10,9,3,15,3,21,0.00,4,,188
2011-10-27,68,58,48,62,49,45,93,83,72,30.13,29.98,29.82,10,10,4,16,7,23,0.26,8,Rain,17
2011-10-28,61,48,34,46,40,34,93,65,36,30.26,30.19,30.09,10,8,2,13,4,20,0.00,3,,342
2011-10-29,66,48,30,42,35,29,100,62,24,30.29,30.23,30.12,10,6,1,10,2,24,0.00,1,,181
2011-10-30,67,50,33,44,37,32,100,66,32,30.22,30.16,30.10,10,7,1,12,2,15,0.00,0,,139
2011-10-31,73,54,34,47,39,34,100,67,34,30.22,30.18,30.11,10,5,0,9,1,13,0.00,0,Fog,205